Time;durP1;ratioP1;P1;durP2;ratioP2;P2;SDS_P1;SDS_P2;PMS_P1;PMS_P2;Temp;Humidity;BMP_temperature;BMP_pressure;BME280_temperature;BME280_humidity;BME280_pressure;Samples;Min_cycle;Max_cycle;Signal;HPM_P1;HPM_P2
2022/10/12 00:02:32;;;;;;;3.67;2.33;;;14.00;99.90;;;;;;10015109;28;20026;-63
2022/10/12 00:07:23;;;;;;;3.25;1.63;;;13.90;99.90;;;;;;10009078;28;20404;-61
2022/10/12 00:12:13;;;;;;;3.50;1.70;;;13.80;99.90;;;;;;10015652;28;20105;-62
2022/10/12 00:17:04;;;;;;;2.90;1.95;;;13.80;99.90;;;;;;10014409;28;20025;-63
2022/10/12 00:21:54;;;;;;;5.07;1.60;;;13.90;99.90;;;;;;10012321;28;20084;-62
2022/10/12 00:26:45;;;;;;;4.72;2.03;;;13.80;99.90;;;;;;10016429;28;20026;-62
2022/10/12 00:31:36;;;;;;;4.85;2.33;;;13.80;99.90;;;;;;10017667;28;20034;-63
2022/10/12 00:36:32;;;;;;;4.78;2.08;;;13.80;99.90;;;;;;10018365;28;20498;-61
2022/10/12 00:41:28;;;;;;;3.05;1.75;;;13.60;99.90;;;;;;10021306;28;20492;-61
2022/10/12 00:46:28;;;;;;;4.60;1.95;;;13.60;99.90;;;;;;10009648;28;20030;-61
2022/10/12 00:51:21;;;;;;;4.07;2.88;;;13.60;99.90;;;;;;10014079;28;20060;-61
2022/10/12 00:56:18;;;;;;;3.85;2.03;;;13.40;99.90;;;;;;10014573;28;20033;-61
2022/10/12 01:01:09;;;;;;;3.47;1.90;;;13.50;99.90;;;;;;10014407;28;20033;-62
2022/10/12 01:06:00;;;;;;;6.18;2.33;;;13.40;99.90;;;;;;10013644;28;20064;-61
2022/10/12 01:10:50;;;;;;;4.63;2.33;;;13.50;99.90;;;;;;10013715;28;20033;-61
2022/10/12 01:15:51;;;;;;;4.55;1.75;;;13.50;99.90;;;;;;10013259;28;20117;-60
2022/10/12 01:20:44;;;;;;;5.20;1.80;;;13.40;99.90;;;;;;10013649;28;20455;-62
2022/10/12 01:26:29;;;;;;;3.97;1.88;;;13.30;99.90;;;;;;10015205;28;20037;-63
2022/10/12 01:31:33;;;;;;;4.88;1.73;;;13.30;99.90;;;;;;10012018;28;20060;-61
2022/10/12 01:36:27;;;;;;;4.13;1.83;;;13.30;99.90;;;;;;10016374;28;20041;-62
2022/10/12 01:41:30;;;;;;;5.45;1.83;;;13.30;99.90;;;;;;10018626;28;20026;-62
2022/10/12 01:46:24;;;;;;;4.13;1.65;;;13.40;99.90;;;;;;10018655;28;20026;-63
2022/10/12 01:51:49;;;;;;;3.00;1.75;;;13.40;99.90;;;;;;10018057;28;20049;-62
2022/10/12 01:56:43;;;;;;;6.28;1.98;;;13.10;99.90;;;;;;10016786;28;20042;-62
2022/10/12 02:01:56;;;;;;;3.10;1.63;;;13.00;99.90;;;;;;10017680;28;20492;-64
2022/10/12 02:06:59;;;;;;;6.20;1.95;;;12.90;99.90;;;;;;10015578;28;20085;-62
2022/10/12 02:11:53;;;;;;;8.73;3.08;;;13.10;99.90;;;;;;10021201;28;20033;-63
2022/10/12 02:16:53;;;;;;;3.08;1.85;;;13.20;99.90;;;;;;10016722;28;20053;-61
2022/10/12 02:21:45;;;;;;;8.48;2.85;;;13.20;99.90;;;;;;10019614;28;20594;-61
2022/10/12 02:26:40;;;;;;;3.05;1.88;;;13.20;99.90;;;;;;10018880;28;20030;-62
2022/10/12 02:31:49;;;;;;;3.20;1.77;;;13.00;99.90;;;;;;10027831;28;20092;-62
2022/10/12 02:37:08;;;;;;;3.22;2.33;;;13.10;99.90;;;;;;10017637;28;20057;-61
2022/10/12 02:42:08;;;;;;;4.07;1.70;;;13.00;99.90;;;;;;10013699;28;20451;-62
2022/10/12 02:47:00;;;;;;;3.92;1.55;;;13.00;99.90;;;;;;10017920;28;20081;-63
2022/10/12 02:51:53;;;;;;;9.35;1.63;;;12.90;99.90;;;;;;10019579;28;20412;-62
2022/10/12 02:56:45;;;;;;;6.30;1.80;;;12.90;99.90;;;;;;10018162;28;20617;-63
2022/10/12 03:01:36;;;;;;;3.88;1.88;;;12.90;99.90;;;;;;10018465;28;20021;-62
2022/10/12 03:06:27;;;;;;;2.75;1.55;;;13.00;99.90;;;;;;10020237;28;20389;-63
2022/10/12 03:11:17;;;;;;;3.80;1.70;;;12.90;99.90;;;;;;10021627;28;20042;-61
2022/10/12 03:16:09;;;;;;;4.80;2.05;;;12.90;99.90;;;;;;10016376;28;20484;-61
2022/10/12 03:21:00;;;;;;;4.45;1.77;;;12.80;99.90;;;;;;10021668;28;20160;-62
2022/10/12 03:25:51;;;;;;;5.15;2.00;;;12.80;99.90;;;;;;10020776;28;20105;-61
2022/10/12 03:30:42;;;;;;;3.42;1.60;;;12.80;99.90;;;;;;10021611;28;20404;-61
2022/10/12 03:35:33;;;;;;;3.65;2.03;;;12.80;99.90;;;;;;10021069;28;20059;-61
2022/10/12 03:40:24;;;;;;;2.90;1.58;;;12.80;99.90;;;;;;10018796;28;20076;-61
2022/10/12 03:45:14;;;;;;;3.55;1.77;;;12.70;99.90;;;;;;10018526;28;20237;-63
2022/10/12 03:50:05;;;;;;;4.63;1.92;;;12.70;99.90;;;;;;10023991;28;20030;-61
2022/10/12 03:54:56;;;;;;;5.25;2.15;;;12.80;99.90;;;;;;10016380;28;20115;-62
2022/10/12 03:59:47;;;;;;;3.25;1.95;;;12.70;99.90;;;;;;10017540;28;20170;-61
2022/10/12 04:04:37;;;;;;;3.75;2.80;;;12.70;99.90;;;;;;10024586;28;20044;-62
2022/10/12 04:09:28;;;;;;;5.40;1.75;;;12.70;99.90;;;;;;10016184;28;20046;-62
2022/10/12 04:14:19;;;;;;;7.43;2.10;;;12.70;99.90;;;;;;10014493;28;20540;-62
2022/10/12 04:19:12;;;;;;;2.83;1.45;;;12.60;99.90;;;;;;10016841;28;20029;-63
2022/10/12 04:24:03;;;;;;;5.65;2.22;;;12.70;99.90;;;;;;10015901;28;20397;-64
2022/10/12 04:28:53;;;;;;;6.93;2.00;;;12.80;99.90;;;;;;10015830;28;20562;-63
2022/10/12 04:33:44;;;;;;;4.70;2.00;;;12.80;99.90;;;;;;10014182;28;20532;-62
2022/10/12 04:38:35;;;;;;;3.83;1.88;;;12.80;99.90;;;;;;10018470;28;20524;-63
2022/10/12 04:43:26;;;;;;;6.05;2.42;;;12.80;99.90;;;;;;10019565;28;20025;-62
2022/10/12 04:48:22;;;;;;;8.40;2.90;;;12.80;99.90;;;;;;10018861;28;20044;-63
2022/10/12 04:53:13;;;;;;;4.25;1.73;;;13.00;99.90;;;;;;10020173;28;20026;-63
2022/10/12 04:58:04;;;;;;;5.07;2.58;;;13.00;99.90;;;;;;10018641;28;20405;-62
2022/10/12 05:02:54;;;;;;;5.40;2.50;;;13.00;99.90;;;;;;10009561;28;20030;-64
2022/10/12 05:07:45;;;;;;;4.30;2.22;;;12.90;99.90;;;;;;10009737;28;20039;-62
2022/10/12 05:12:35;;;;;;;6.57;2.40;;;12.90;99.90;;;;;;10013109;28;20116;-60
2022/10/12 05:17:26;;;;;;;6.13;2.83;;;13.00;99.90;;;;;;10009340;28;20032;-61
2022/10/12 05:22:17;;;;;;;6.75;2.33;;;13.00;99.90;;;;;;10012837;28;20053;-61
2022/10/12 05:27:07;;;;;;;6.32;3.05;;;13.10;99.90;;;;;;10011388;28;20417;-61
2022/10/12 05:31:58;;;;;;;8.50;2.70;;;13.20;99.90;;;;;;10014205;28;20568;-61
2022/10/12 05:36:49;;;;;;;7.55;3.08;;;13.20;99.90;;;;;;10019318;28;20520;-62
2022/10/12 05:41:40;;;;;;;10.02;3.47;;;13.20;99.90;;;;;;10012079;28;20026;-61
2022/10/12 05:46:30;;;;;;;13.07;5.53;;;13.30;99.90;;;;;;10012475;28;20037;-60
2022/10/12 05:51:21;;;;;;;13.65;4.35;;;13.20;99.90;;;;;;10012996;28;20539;-61
2022/10/12 05:56:12;;;;;;;19.52;4.05;;;13.30;99.90;;;;;;10010752;28;20037;-60
2022/10/12 06:01:05;;;;;;;12.20;4.57;;;13.40;99.90;;;;;;10012513;28;20034;-60
2022/10/12 06:05:56;;;;;;;8.52;4.43;;;13.40;99.90;;;;;;10014865;28;20026;-61
2022/10/12 06:10:49;;;;;;;8.05;3.75;;;13.40;99.90;;;;;;10016157;28;20532;-61
2022/10/12 06:15:40;;;;;;;9.23;3.90;;;13.40;99.90;;;;;;10008449;28;20029;-63
2022/10/12 06:20:30;;;;;;;9.00;3.22;;;13.30;99.90;;;;;;10016019;28;20060;-62
2022/10/12 06:25:21;;;;;;;7.03;3.45;;;13.20;99.90;;;;;;10017216;28;20122;-62
2022/10/12 06:30:12;;;;;;;5.85;3.20;;;13.20;99.90;;;;;;10015969;28;20120;-61
2022/10/12 06:35:03;;;;;;;7.10;3.45;;;13.40;99.90;;;;;;10012366;28;20100;-62
2022/10/12 06:39:54;;;;;;;6.78;3.35;;;13.40;99.90;;;;;;10015930;28;20050;-62
2022/10/12 06:44:45;;;;;;;10.07;3.15;;;13.30;99.90;;;;;;10013378;28;20029;-62
2022/10/12 06:49:36;;;;;;;8.95;3.35;;;13.50;99.90;;;;;;10011963;28;20046;-65
2022/10/12 06:54:26;;;;;;;8.18;3.50;;;13.70;99.90;;;;;;10015280;28;20029;-64
2022/10/12 06:59:18;;;;;;;4.90;2.92;;;13.60;99.90;;;;;;10018055;28;20117;-63
2022/10/12 07:04:08;;;;;;;14.77;4.18;;;13.70;99.90;;;;;;10026380;28;20014;-61
2022/10/12 07:09:00;;;;;;;9.45;3.72;;;13.90;99.90;;;;;;10017986;28;20045;-63
2022/10/12 07:13:50;;;;;;;11.55;3.95;;;14.00;99.90;;;;;;10017268;28;20105;-65
2022/10/12 07:18:41;;;;;;;7.90;3.97;;;14.00;99.90;;;;;;10017742;28;20112;-64
2022/10/12 07:23:33;;;;;;;6.70;3.60;;;14.20;99.90;;;;;;10017117;28;20645;-62
2022/10/12 07:28:24;;;;;;;7.55;2.72;;;14.20;99.90;;;;;;10016773;28;20562;-65
2022/10/12 07:33:15;;;;;;;12.52;4.40;;;14.20;99.90;;;;;;10014931;28;20029;-63
2022/10/12 07:38:06;;;;;;;7.55;3.22;;;14.10;99.90;;;;;;10053643;22;20237;-57
2022/10/12 07:42:57;;;;;;;11.48;3.30;;;14.20;99.90;;;;;;10060735;28;20030;-56
2022/10/12 07:47:48;;;;;;;18.40;5.03;;;14.20;99.90;;;;;;10060999;28;20088;-60
2022/10/12 07:52:38;;;;;;;8.25;3.67;;;14.30;99.90;;;;;;10060727;28;20491;-60
2022/10/12 07:57:29;;;;;;;8.73;2.88;;;14.20;99.90;;;;;;10059762;28;20024;-57
2022/10/12 08:02:20;;;;;;;10.13;3.08;;;14.20;99.90;;;;;;10062545;28;20125;-57
2022/10/12 08:07:11;;;;;;;10.32;3.90;;;14.50;99.90;;;;;;10058363;28;20045;-57
2022/10/12 08:12:03;;;;;;;10.52;3.65;;;14.50;99.90;;;;;;10059017;28;20030;-58
2022/10/12 08:16:53;;;;;;;10.75;3.25;;;14.70;99.90;;;;;;10058091;28;20132;-58
2022/10/12 08:21:44;;;;;;;9.18;4.93;;;14.50;99.90;;;;;;10054131;28;20242;-60
2022/10/12 08:26:35;;;;;;;20.20;12.93;;;14.70;99.90;;;;;;10033313;28;20021;-59
2022/10/12 08:31:25;;;;;;;7.25;4.68;;;15.00;99.90;;;;;;10045721;28;20030;-59
2022/10/12 08:36:16;;;;;;;11.85;3.45;;;15.00;99.90;;;;;;10053428;28;20052;-58
2022/10/12 08:41:32;;;;;;;11.73;4.68;;;15.10;99.90;;;;;;10053680;28;20051;-56
2022/10/12 08:46:25;;;;;;;9.95;5.20;;;15.20;99.90;;;;;;10052413;28;20051;-57
2022/10/12 08:51:20;;;;;;;10.68;4.00;;;15.10;99.90;;;;;;10052411;28;20041;-58
2022/10/12 08:56:14;;;;;;;;;;;15.00;99.90;;;;;;10050961;28;20037;-60
2022/10/12 09:01:17;;;;;;;7.82;4.72;;;15.10;99.90;;;;;;10055034;28;19948;-60
2022/10/12 09:06:18;;;;;;;8.57;4.40;;;15.20;99.90;;;;;;10053002;28;20496;-60
2022/10/12 09:11:30;;;;;;;12.32;5.00;;;15.10;99.90;;;;;;10058439;28;20036;-60
2022/10/12 09:16:24;;;;;;;12.57;3.90;;;15.10;99.90;;;;;;10054700;28;20038;-60
2022/10/12 09:21:20;;;;;;;10.98;5.03;;;15.20;99.90;;;;;;10058227;28;20025;-62
2022/10/12 09:26:25;;;;;;;11.15;4.68;;;15.10;99.90;;;;;;10056188;28;20030;-61
2022/10/12 09:31:37;;;;;;;7.95;4.40;;;15.10;99.90;;;;;;10060091;28;20129;-58
2022/10/12 09:36:32;;;;;;;8.80;4.05;;;15.10;99.90;;;;;;10057481;28;20069;-57
2022/10/12 09:41:31;;;;;;;9.00;4.10;;;15.30;99.90;;;;;;10054051;28;20582;-61
2022/10/12 09:46:49;;;;;;;9.82;3.40;;;15.40;99.90;;;;;;10050548;28;20140;-61
2022/10/12 09:51:40;;;;;;;10.18;3.55;;;15.40;99.90;;;;;;10049894;28;20046;-62
2022/10/12 09:56:46;;;;;;;11.43;4.35;;;15.50;99.90;;;;;;10053238;28;20533;-61
2022/10/12 10:01:37;;;;;;;;;;;15.70;99.90;;;;;;10049377;28;20454;-62
2022/10/12 10:06:27;;;;;;;11.90;5.00;;;15.80;99.90;;;;;;10044971;28;19963;-62
2022/10/12 10:11:22;;;;;;;9.40;4.38;;;15.90;99.90;;;;;;10052254;28;20439;-62
2022/10/12 10:16:13;;;;;;;10.13;4.05;;;16.00;99.90;;;;;;10058020;28;20045;-57
2022/10/12 10:21:08;;;;;;;13.07;4.75;;;16.30;99.90;;;;;;10052572;28;20472;-57
2022/10/12 10:26:08;;;;;;;10.20;4.57;;;16.40;99.90;;;;;;10052569;28;20029;-57
2022/10/12 10:31:16;;;;;;;14.15;4.68;;;16.60;99.90;;;;;;10050568;28;20103;-57
2022/10/12 10:36:22;;;;;;;8.75;4.50;;;16.70;99.90;;;;;;10057491;28;20185;-59
2022/10/12 10:41:16;;;;;;;8.27;4.38;;;16.60;99.90;;;;;;10073017;28;20042;-56
2022/10/12 10:46:07;;;;;;;11.70;5.10;;;16.80;99.90;;;;;;10062893;28;20036;-61
2022/10/12 10:51:01;;;;;;;8.05;4.53;;;16.80;99.90;;;;;;10061590;28;20046;-58
2022/10/12 10:56:00;;;;;;;11.20;4.50;;;16.90;99.90;;;;;;10076144;28;20430;-59
2022/10/12 11:00:53;;;;;;;14.15;5.80;;;17.10;99.90;;;;;;10061495;28;20104;-60
2022/10/12 11:05:49;;;;;;;10.60;5.45;;;17.00;99.90;;;;;;10061347;28;20033;-59
2022/10/12 11:10:49;;;;;;;11.38;5.32;;;17.10;99.90;;;;;;10061222;28;20038;-58
2022/10/12 11:15:45;;;;;;;8.85;4.97;;;17.20;99.90;;;;;;10053229;28;20013;-59
2022/10/12 11:20:46;;;;;;;8.32;4.65;;;17.40;99.90;;;;;;10056737;28;20053;-57
2022/10/12 11:25:59;;;;;;;12.93;5.65;;;17.60;99.90;;;;;;10055504;28;20044;-59
2022/10/12 11:30:52;;;;;;;12.25;5.30;;;17.70;99.90;;;;;;10053592;28;20049;-60
2022/10/12 11:35:45;;;;;;;13.68;5.70;;;17.60;99.90;;;;;;10053274;28;20076;-57
2022/10/12 11:40:41;;;;;;;11.93;5.25;;;17.50;99.90;;;;;;10063409;28;20131;-57
2022/10/12 11:45:40;;;;;;;6.97;4.57;;;17.60;99.90;;;;;;10053057;28;20083;-58
2022/10/12 11:50:35;;;;;;;11.52;6.03;;;17.70;99.90;;;;;;10052411;28;20049;-61
2022/10/12 11:55:31;;;;;;;9.43;5.28;;;17.80;99.90;;;;;;10051865;28;20096;-62
2022/10/12 12:00:35;;;;;;;10.32;5.38;;;17.90;99.90;;;;;;10052306;28;20037;-61
2022/10/12 12:05:31;;;;;;;11.47;5.10;;;18.10;99.90;;;;;;10054454;28;20042;-59
2022/10/12 12:10:24;;;;;;;;;;;18.40;99.90;;;;;;10058391;28;20029;-58
2022/10/12 12:15:20;;;;;;;7.07;4.78;;;18.30;99.90;;;;;;10057865;28;19916;-60
2022/10/12 12:20:42;;;;;;;11.10;4.53;;;18.40;99.90;;;;;;10055975;28;20048;-60
2022/10/12 12:25:33;;;;;;;14.57;6.18;;;18.80;99.90;;;;;;10053706;28;20494;-58
2022/10/12 12:30:36;;;;;;;10.52;4.68;;;19.10;99.90;;;;;;10055047;28;20073;-58
2022/10/12 12:35:29;;;;;;;9.80;5.30;;;19.40;99.90;;;;;;10058185;28;20021;-61
2022/10/12 12:40:22;;;;;;;12.55;4.47;;;19.70;99.90;;;;;;10058135;28;20120;-58
2022/10/12 12:45:31;;;;;;;11.50;5.32;;;20.10;99.90;;;;;;10063703;28;20029;-58
2022/10/12 12:50:37;;;;;;;12.00;5.10;;;20.50;99.90;;;;;;10049098;28;20041;-58
2022/10/12 12:56:03;;;;;;;12.48;5.18;;;20.60;99.90;;;;;;10051216;28;20029;-56
2022/10/12 13:01:14;;;;;;;11.40;5.38;;;21.00;99.90;;;;;;10049830;28;20384;-58
2022/10/12 13:06:12;;;;;;;11.73;6.07;;;21.40;99.90;;;;;;10038961;28;20056;-58
2022/10/12 13:11:24;;;;;;;11.70;5.90;;;21.70;99.90;;;;;;10051811;28;20498;-58
2022/10/12 13:16:21;;;;;;;12.02;5.10;;;21.90;99.90;;;;;;10051402;28;20044;-59
2022/10/12 13:21:18;;;;;;;13.85;6.35;;;22.00;99.90;;;;;;10052230;28;20109;-59
2022/10/12 13:26:13;;;;;;;9.90;5.38;;;22.40;99.90;;;;;;10049602;28;20029;-58
2022/10/12 13:31:15;;;;;;;11.02;5.32;;;22.80;99.90;;;;;;10048420;28;20026;-60
2022/10/12 13:36:28;;;;;;;12.02;5.82;;;23.10;99.70;;;;;;10045286;28;20435;-59
2022/10/12 13:41:19;;;;;;;12.13;4.90;;;23.40;99.30;;;;;;10056617;28;20043;-60
2022/10/12 13:46:35;;;;;;;10.82;5.75;;;23.50;99.10;;;;;;10052776;28;20517;-58
2022/10/12 13:51:29;;;;;;;9.23;5.43;;;23.90;98.00;;;;;;10055103;28;20039;-62
2022/10/12 13:56:23;;;;;;;11.85;4.80;;;24.10;97.70;;;;;;10055803;28;20021;-61
2022/10/12 14:01:14;;;;;;;14.63;4.95;;;24.80;96.80;;;;;;10056633;28;20028;-63
2022/10/12 14:06:21;;;;;;;8.32;4.25;;;25.20;96.20;;;;;;10055563;28;20036;-62
2022/10/12 14:11:12;;;;;;;12.23;5.65;;;26.00;95.40;;;;;;10063966;28;20075;-65
2022/10/12 14:16:05;;;;;;;12.85;6.70;;;26.80;94.50;;;;;;10060574;28;20025;-58
2022/10/12 14:21:15;;;;;;;;;;;27.50;93.80;;;;;;10054991;28;20029;-60
2022/10/12 14:26:37;;;;;;;12.98;5.45;;;28.30;92.80;;;;;;10056376;28;20279;-58
2022/10/12 14:32:09;;;;;;;9.30;5.90;;;28.90;92.00;;;;;;10056409;28;20190;-58
2022/10/12 14:37:04;;;;;;;10.90;4.35;;;29.50;90.60;;;;;;10051858;28;20080;-60
2022/10/12 14:41:57;;;;;;;6.47;4.50;;;29.70;90.00;;;;;;10052626;28;20042;-58
2022/10/12 14:47:01;;;;;;;;;;;29.80;88.40;;;;;;10058088;28;20067;-59
2022/10/12 14:51:53;;;;;;;9.95;4.95;;;29.80;86.50;;;;;;10059133;28;19909;-59
2022/10/12 14:56:44;;;;;;;8.18;4.38;;;30.10;85.90;;;;;;10055615;28;20029;-60
2022/10/12 15:01:34;;;;;;;12.20;5.03;;;30.30;84.10;;;;;;10057595;28;20028;-58
2022/10/12 15:06:25;;;;;;;7.72;5.03;;;30.10;82.70;;;;;;10057728;28;20037;-60
2022/10/12 15:11:16;;;;;;;9.75;5.00;;;29.70;81.20;;;;;;10060904;28;20403;-60
2022/10/12 15:16:22;;;;;;;10.20;5.00;;;29.50;80.30;;;;;;10060784;28;20025;-60
2022/10/12 15:21:13;;;;;;;11.80;5.50;;;28.50;79.60;;;;;;10061051;28;20044;-60
2022/10/12 15:26:04;;;;;;;8.32;4.20;;;28.30;80.60;;;;;;10059881;28;20021;-59
2022/10/12 15:31:01;;;;;;;10.68;4.15;;;28.60;79.50;;;;;;10062826;28;20048;-59
2022/10/12 15:35:51;;;;;;;10.57;4.22;;;28.10;79.00;;;;;;10065173;28;20126;-58
2022/10/12 15:40:44;;;;;;;8.23;3.80;;;26.90;80.20;;;;;;10077882;28;20057;-59
2022/10/12 15:45:38;;;;;;;8.33;4.30;;;26.90;80.20;;;;;;10058041;28;20114;-61
2022/10/12 15:50:38;;;;;;;9.40;4.53;;;27.00;79.70;;;;;;10054366;28;20128;-60
2022/10/12 15:55:30;;;;;;;9.70;3.53;;;26.50;79.70;;;;;;10056536;28;20021;-59
2022/10/12 16:00:24;;;;;;;8.02;3.50;;;25.60;81.10;;;;;;10068312;28;20033;-58
2022/10/12 16:05:17;;;;;;;13.38;4.28;;;24.40;83.40;;;;;;10055063;28;20033;-58
2022/10/12 16:10:12;;;;;;;9.38;4.45;;;22.60;86.40;;;;;;10055046;28;20041;-61
2022/10/12 16:15:04;;;;;;;11.00;4.35;;;21.40;88.30;;;;;;10055779;28;20061;-61
2022/10/12 16:19:54;;;;;;;9.05;3.50;;;20.80;89.50;;;;;;10054697;28;20029;-59
2022/10/12 16:24:45;;;;;;;9.43;4.05;;;20.60;89.90;;;;;;10052706;28;20095;-60
2022/10/12 16:29:36;;;;;;;8.68;3.65;;;20.30;90.00;;;;;;10050263;28;20404;-60
2022/10/12 16:34:29;;;;;;;6.90;3.22;;;20.00;90.50;;;;;;10053932;28;20030;-59
2022/10/12 16:39:20;;;;;;;8.50;3.65;;;19.80;90.90;;;;;;10057178;28;20119;-60
2022/10/12 16:44:10;;;;;;;7.95;3.35;;;19.80;91.20;;;;;;10057092;28;20036;-61
2022/10/12 16:49:01;;;;;;;10.57;5.05;;;19.70;91.50;;;;;;10058496;28;20538;-60
2022/10/12 16:53:52;;;;;;;9.93;3.92;;;19.50;91.90;;;;;;10058162;28;20044;-61
2022/10/12 16:58:42;;;;;;;8.75;3.58;;;19.40;92.20;;;;;;10056465;28;20051;-58
2022/10/12 17:03:33;;;;;;;5.65;3.83;;;19.30;92.50;;;;;;10057963;28;20037;-58
2022/10/12 17:08:24;;;;;;;6.70;3.63;;;19.20;92.70;;;;;;10057574;28;20103;-60
2022/10/12 17:13:14;;;;;;;6.28;3.70;;;19.10;93.00;;;;;;10055307;28;20037;-60
2022/10/12 17:18:05;;;;;;;14.85;5.22;;;19.00;93.40;;;;;;10052567;28;20467;-60
2022/10/12 17:22:55;;;;;;;15.30;5.80;;;19.00;93.60;;;;;;10052637;28;20021;-61
2022/10/12 17:27:46;;;;;;;14.85;6.80;;;19.00;93.80;;;;;;10052857;28;20040;-63
2022/10/12 17:32:37;;;;;;;19.98;7.93;;;18.90;94.00;;;;;;10051582;28;20033;-69
2022/10/12 17:37:27;;;;;;;17.60;7.18;;;18.80;94.30;;;;;;10067884;28;20056;-65
2022/10/12 17:42:19;;;;;;;17.98;6.88;;;18.70;94.70;;;;;;10036904;28;20603;-66
2022/10/12 17:47:10;;;;;;;9.85;5.45;;;18.60;94.90;;;;;;10061933;28;20197;-54
2022/10/12 17:52:00;;;;;;;9.82;4.65;;;18.50;95.20;;;;;;10052601;28;20061;-54
2022/10/12 17:56:53;;;;;;;10.60;5.20;;;18.40;95.50;;;;;;10051432;28;20116;-60
2022/10/12 18:01:44;;;;;;;13.48;6.57;;;18.40;95.80;;;;;;10052317;28;20057;-58
2022/10/12 18:06:34;;;;;;;14.50;5.93;;;18.30;96.20;;;;;;10052216;28;20039;-56
2022/10/12 18:11:25;;;;;;;16.13;6.18;;;18.10;96.70;;;;;;10055871;28;20507;-57
2022/10/12 18:16:19;;;;;;;12.30;5.28;;;18.00;96.80;;;;;;10056128;28;20076;-59
2022/10/12 18:21:12;;;;;;;12.00;5.55;;;17.90;97.20;;;;;;10032590;28;20105;-57
2022/10/12 18:26:05;;;;;;;11.68;6.43;;;17.90;97.40;;;;;;10047665;28;20026;-60
2022/10/12 18:30:55;;;;;;;12.57;5.95;;;17.70;97.60;;;;;;10038136;28;20033;-59
2022/10/12 18:35:46;;;;;;;11.68;6.32;;;17.70;98.00;;;;;;10039241;28;20029;-57
2022/10/12 18:40:37;;;;;;;13.70;6.18;;;17.60;98.40;;;;;;10052702;28;20057;-55
2022/10/12 18:45:28;;;;;;;11.95;5.28;;;17.40;98.50;;;;;;10052498;28;20656;-55
2022/10/12 18:50:19;;;;;;;16.30;7.32;;;17.30;98.80;;;;;;10051539;28;20048;-54
2022/10/12 18:55:10;;;;;;;13.57;6.00;;;17.30;99.00;;;;;;10056060;28;20052;-52
2022/10/12 19:00:03;;;;;;;11.20;6.13;;;17.20;99.20;;;;;;10058057;28;20022;-55
2022/10/12 19:04:54;;;;;;;9.52;5.00;;;17.20;99.50;;;;;;10057222;28;20017;-57
2022/10/12 19:09:45;;;;;;;9.95;6.20;;;17.10;99.80;;;;;;10059764;28;20699;-54
2022/10/12 19:14:35;;;;;;;13.23;6.65;;;17.10;99.70;;;;;;10058931;28;20216;-53
2022/10/12 19:19:26;;;;;;;10.73;7.15;;;16.90;99.90;;;;;;10066827;28;20037;-59
2022/10/12 19:24:17;;;;;;;12.60;6.22;;;16.80;99.90;;;;;;10060801;28;20021;-54
2022/10/12 19:29:08;;;;;;;11.98;5.90;;;16.90;99.90;;;;;;10057298;28;20064;-67
2022/10/12 19:34:01;;;;;;;11.02;6.03;;;16.90;99.90;;;;;;10056563;28;20554;-63
2022/10/12 19:38:57;;;;;;;12.57;6.88;;;16.90;99.90;;;;;;10055579;28;20142;-65
2022/10/12 19:43:48;;;;;;;12.52;6.47;;;17.10;99.90;;;;;;10059947;28;20087;-66
2022/10/12 19:48:40;;;;;;;15.00;5.97;;;17.00;99.90;;;;;;10061260;28;20484;-59
2022/10/12 19:53:31;;;;;;;14.50;5.45;;;17.00;99.90;;;;;;10060417;28;20071;-53
2022/10/12 19:58:22;;;;;;;13.50;6.35;;;17.10;99.90;;;;;;10060117;28;20479;-67
2022/10/12 20:03:12;;;;;;;11.73;6.32;;;17.00;99.90;;;;;;10058734;28;20090;-58
2022/10/12 20:08:03;;;;;;;12.70;7.68;;;17.00;99.90;;;;;;10059125;28;20030;-59
2022/10/12 20:12:54;;;;;;;9.70;5.57;;;16.80;99.90;;;;;;10059366;28;20029;-54
2022/10/12 20:17:44;;;;;;;14.15;7.93;;;16.90;99.90;;;;;;10056455;28;20034;-60
2022/10/12 20:22:35;;;;;;;11.48;6.70;;;17.00;99.90;;;;;;10057577;28;20044;-58
2022/10/12 20:27:26;;;;;;;11.75;6.18;;;16.80;99.90;;;;;;10054483;28;20375;-58
2022/10/12 20:32:16;;;;;;;15.93;6.65;;;16.80;99.90;;;;;;10055236;28;20119;-53
2022/10/12 20:37:08;;;;;;;18.65;7.30;;;16.60;99.90;;;;;;10056251;28;20128;-53
2022/10/12 20:41:59;;;;;;;11.57;6.35;;;16.50;99.90;;;;;;10054492;28;20026;-52
2022/10/12 20:46:50;;;;;;;12.52;6.40;;;16.50;99.90;;;;;;10054774;28;20071;-54
2022/10/12 20:51:43;;;;;;;18.80;6.82;;;16.50;99.90;;;;;;10054328;28;20038;-54
2022/10/12 20:56:34;;;;;;;21.02;7.47;;;16.40;99.90;;;;;;10053277;28;20539;-53
2022/10/12 21:01:25;;;;;;;15.68;7.88;;;16.40;99.90;;;;;;10052983;28;20292;-52
2022/10/12 21:06:16;;;;;;;11.40;6.97;;;16.30;99.90;;;;;;10051767;28;20136;-53
2022/10/12 21:11:07;;;;;;;14.90;7.03;;;16.30;99.90;;;;;;10055290;28;20048;-50
2022/10/12 21:15:57;;;;;;;13.13;6.07;;;16.10;99.90;;;;;;10056420;28;20022;-51
2022/10/12 21:21:03;;;;;;;14.02;6.75;;;16.10;99.90;;;;;;10056785;28;20029;-53
2022/10/12 21:25:53;;;;;;;13.45;7.38;;;16.00;99.90;;;;;;10055949;28;20021;-49
2022/10/12 21:30:45;;;;;;;10.68;6.78;;;16.00;99.90;;;;;;10055297;28;20029;-56
2022/10/12 21:35:36;;;;;;;13.60;7.40;;;16.00;99.90;;;;;;10057199;28;20511;-50
2022/10/12 21:40:27;;;;;;;15.70;7.63;;;15.90;99.90;;;;;;10061588;28;20045;-50
2022/10/12 21:45:18;;;;;;;15.73;7.32;;;15.90;99.90;;;;;;10054056;28;20025;-52
2022/10/12 21:50:09;;;;;;;22.92;7.53;;;15.80;99.90;;;;;;10051788;28;20029;-64
2022/10/12 21:54:59;;;;;;;14.90;6.78;;;15.70;99.90;;;;;;10051983;28;20132;-57
2022/10/12 21:59:50;;;;;;;11.75;6.68;;;15.80;99.90;;;;;;10050667;28;20117;-57
2022/10/12 22:04:41;;;;;;;14.45;6.47;;;15.80;99.90;;;;;;10066839;28;20491;-52
2022/10/12 22:09:31;;;;;;;8.15;6.10;;;15.50;99.90;;;;;;10051078;28;20503;-53
2022/10/12 22:14:22;;;;;;;13.15;6.72;;;15.50;99.90;;;;;;10051208;28;20503;-53
2022/10/12 22:19:17;;;;;;;13.98;6.88;;;15.60;99.90;;;;;;10051812;28;20037;-50
2022/10/12 22:24:08;;;;;;;13.88;6.30;;;15.60;99.90;;;;;;10048026;28;20373;-55
2022/10/12 22:28:59;;;;;;;12.23;6.65;;;15.60;99.90;;;;;;10055936;28;20045;-57
2022/10/12 22:33:51;;;;;;;13.55;6.03;;;15.60;99.90;;;;;;10058681;28;20087;-51
2022/10/12 22:38:42;;;;;;;9.27;5.60;;;15.60;99.90;;;;;;10061321;28;20080;-54
2022/10/12 22:43:34;;;;;;;14.02;5.85;;;15.60;99.90;;;;;;10063195;28;20037;-52
2022/10/12 22:48:25;;;;;;;9.45;5.47;;;15.40;99.90;;;;;;10061368;28;20286;-61
2022/10/12 22:53:16;;;;;;;9.48;5.15;;;15.40;99.90;;;;;;10062225;28;20034;-52
2022/10/12 22:58:07;;;;;;;9.90;5.50;;;15.30;99.90;;;;;;10062682;28;20025;-52
2022/10/12 23:02:58;;;;;;;7.95;4.95;;;15.40;99.90;;;;;;10061675;28;20086;-50
2022/10/12 23:07:49;;;;;;;15.32;5.65;;;15.30;99.90;;;;;;10061788;28;20442;-50
2022/10/12 23:12:39;;;;;;;6.45;4.45;;;15.30;99.90;;;;;;10060515;28;20021;-59
2022/10/12 23:17:30;;;;;;;10.32;5.15;;;15.30;99.90;;;;;;10057353;28;20148;-50
2022/10/12 23:22:21;;;;;;;7.55;4.65;;;15.20;99.90;;;;;;10057899;28;20018;-56
2022/10/12 23:27:12;;;;;;;10.13;5.22;;;15.20;99.90;;;;;;10056206;28;20083;-52
2022/10/12 23:32:02;;;;;;;10.90;5.07;;;15.20;99.90;;;;;;10056724;28;20103;-59
2022/10/12 23:36:53;;;;;;;8.32;5.78;;;15.20;99.90;;;;;;10056329;28;20412;-52
2022/10/12 23:41:44;;;;;;;10.88;5.60;;;15.10;99.90;;;;;;10054011;28;20029;-53
2022/10/12 23:46:34;;;;;;;13.05;6.72;;;15.10;99.90;;;;;;10054830;28;20036;-50
2022/10/12 23:51:25;;;;;;;13.98;6.25;;;15.10;99.90;;;;;;10055701;28;20538;-56
2022/10/12 23:56:15;;;;;;;13.20;5.90;;;15.10;99.90;;;;;;10055354;28;20033;-64
